Terminal Aerodrome Forecast
Issued by NWS

Home | Current Version | Previous Version | Graphics & Text | Print | Product List | Glossary Off
Versions: 1 2 3 4 5 6 7 8 9 10 11 12 13 14 15 16 17 18 19 20

000
FTUS43 KMPX 051132
TAFRNH
TAF
KRNH 051132Z 0512/0612 14006KT P6SM SCT080 BKN120
     FM051300 14008KT P6SM VCTS BKN060CB
      TEMPO 0513/0515 4SM TSRA OVC050CB
     FM051500 16012KT P6SM SCT080 SCT250
     FM051800 18015G22KT P6SM SCT050 BKN250
     FM060200 16008KT P6SM SCT080 BKN150 PROB30 0605/0610 4SM TSRA
      BKN060CB=

USA.gov is the U.S. government's official web portal to all federal, state and local government web resources and services.